createdAt,value
2022-08-29T00:00:18.531Z,11.48
2022-08-29T00:02:48.014Z,15.57
2022-08-29T00:05:15.130Z,15.10
2022-08-29T00:07:41.587Z,13.57
2022-08-29T00:10:08.913Z,14.25
2022-08-29T00:12:36.121Z,14.40
2022-08-29T00:15:06.402Z,11.70
2022-08-29T00:17:33.294Z,14.20
2022-08-29T00:19:59.719Z,13.48
2022-08-29T00:22:26.348Z,12.18
2022-08-29T00:24:53.119Z,11.45
2022-08-29T00:27:19.840Z,12.10
2022-08-29T00:29:46.582Z,13.15
2022-08-29T00:32:13.015Z,12.63
2022-08-29T00:34:43.744Z,12.68
2022-08-29T00:37:10.363Z,13.75
2022-08-29T00:39:39.603Z,12.98
2022-08-29T00:42:06.804Z,12.45
2022-08-29T00:44:33.358Z,18.00
2022-08-29T00:47:05.593Z,13.60
2022-08-29T00:49:44.577Z,14.05
2022-08-29T00:52:22.876Z,13.50
2022-08-29T00:54:54.686Z,16.52
2022-08-29T00:57:22.408Z,14.30
2022-08-29T00:59:51.070Z,15.32
2022-08-29T01:02:18.132Z,15.93
2022-08-29T01:04:44.754Z,18.75
2022-08-29T01:07:11.589Z,15.40
2022-08-29T01:09:39.898Z,16.75
2022-08-29T01:12:10.345Z,14.02
2022-08-29T01:14:38.763Z,16.05
2022-08-29T01:17:08.642Z,13.98
2022-08-29T01:20:04.131Z,13.75
2022-08-29T01:23:01.124Z,14.48
2022-08-29T01:25:32.614Z,14.75
2022-08-29T01:28:14.586Z,13.00
2022-08-29T01:31:09.378Z,15.43
2022-08-29T01:33:59.588Z,13.43
2022-08-29T01:36:34.135Z,15.18
2022-08-29T01:39:01.140Z,12.80
2022-08-29T01:41:27.619Z,12.02
2022-08-29T01:43:56.923Z,13.80
2022-08-29T01:46:30.634Z,13.98
2022-08-29T01:48:57.581Z,13.10
2022-08-29T01:51:24.046Z,17.13
2022-08-29T01:53:51.154Z,14.07
2022-08-29T01:56:24.909Z,13.23
2022-08-29T01:58:52.980Z,13.95
2022-08-29T02:01:28.202Z,13.95
2022-08-29T02:03:55.669Z,16.27
2022-08-29T02:06:22.367Z,14.85
2022-08-29T02:08:49.095Z,13.32
2022-08-29T02:11:16.548Z,13.82
2022-08-29T02:13:46.571Z,16.23
2022-08-29T02:16:15.595Z,12.10
2022-08-29T02:18:43.119Z,13.65
2022-08-29T02:21:11.701Z,19.52
2022-08-29T02:23:39.738Z,14.93
2022-08-29T02:26:07.098Z,13.45
2022-08-29T02:28:35.456Z,12.98
2022-08-29T02:31:02.773Z,13.15
2022-08-29T02:33:29.387Z,14.50
2022-08-29T02:35:58.822Z,15.15
2022-08-29T02:38:26.509Z,16.00
2022-08-29T02:40:53.355Z,12.70
2022-08-29T02:43:20.509Z,18.02
2022-08-29T02:45:47.654Z,11.98
2022-08-29T02:48:16.654Z,16.85
2022-08-29T02:50:45.601Z,15.45
2022-08-29T02:53:14.875Z,15.48
2022-08-29T02:55:42.710Z,15.20
2022-08-29T02:58:09.789Z,14.07
2022-08-29T03:00:36.721Z,14.65
2022-08-29T03:03:04.232Z,15.95
2022-08-29T03:05:33.023Z,13.35
2022-08-29T03:08:02.097Z,15.25
2022-08-29T03:10:30.125Z,14.05
2022-08-29T03:12:57.093Z,12.48
2022-08-29T03:15:24.113Z,12.80
2022-08-29T03:17:52.358Z,18.58
2022-08-29T03:20:20.977Z,12.65
2022-08-29T03:22:47.929Z,14.63
2022-08-29T03:25:15.884Z,12.65
2022-08-29T03:27:44.025Z,14.77
2022-08-29T03:30:13.066Z,17.02
2022-08-29T03:32:40.227Z,14.93
2022-08-29T03:35:10.692Z,16.30
2022-08-29T03:37:37.960Z,21.77
2022-08-29T03:40:07.779Z,14.50
2022-08-29T03:42:35.316Z,20.60
2022-08-29T03:45:06.893Z,14.95
2022-08-29T03:47:34.197Z,15.98
2022-08-29T03:50:02.290Z,16.77
2022-08-29T03:52:28.854Z,14.05
2022-08-29T03:54:57.885Z,13.32
2022-08-29T03:57:26.523Z,22.55
2022-08-29T03:59:55.998Z,14.82
2022-08-29T04:02:22.525Z,19.17
2022-08-29T04:04:48.978Z,17.33
2022-08-29T04:07:15.502Z,18.50
2022-08-29T04:09:44.045Z,16.45
2022-08-29T04:12:12.354Z,16.98
2022-08-29T04:14:39.558Z,15.55
2022-08-29T04:17:08.661Z,18.88
2022-08-29T04:19:35.382Z,21.48
2022-08-29T04:22:03.518Z,16.05
2022-08-29T04:24:34.931Z,15.10
2022-08-29T04:27:04.476Z,15.68
2022-08-29T04:29:34.460Z,13.73
2022-08-29T04:32:01.129Z,25.05
2022-08-29T04:34:29.186Z,10.95
2022-08-29T04:36:57.772Z,12.52
2022-08-29T04:39:24.219Z,13.00
2022-08-29T04:41:50.592Z,10.77
2022-08-29T04:44:17.217Z,10.90
2022-08-29T04:46:43.687Z,12.63
2022-08-29T04:49:10.139Z,15.15
2022-08-29T04:51:36.692Z,14.13
2022-08-29T04:54:05.024Z,10.52
2022-08-29T04:56:31.550Z,12.10
2022-08-29T04:58:58.224Z,13.98
2022-08-29T05:01:27.080Z,16.50
2022-08-29T05:03:53.934Z,13.57
2022-08-29T05:06:22.498Z,10.85
2022-08-29T05:08:58.889Z,12.35
2022-08-29T05:11:30.734Z,10.90
2022-08-29T05:13:58.966Z,15.68
2022-08-29T05:16:27.490Z,15.35
2022-08-29T05:18:54.088Z,12.60
2022-08-29T05:21:39.595Z,11.57
2022-08-29T05:24:11.202Z,10.90
2022-08-29T05:26:43.727Z,11.77
2022-08-29T05:29:12.110Z,16.08
2022-08-29T05:31:40.148Z,14.85
2022-08-29T05:34:32.827Z,12.50
2022-08-29T05:36:56.446Z,14.02
2022-08-29T05:39:23.110Z,12.52
2022-08-29T05:41:49.812Z,12.65
2022-08-29T05:44:16.470Z,13.38
2022-08-29T05:46:43.171Z,12.23
2022-08-29T05:49:09.829Z,12.95
2022-08-29T05:51:39.667Z,12.30
2022-08-29T05:54:09.664Z,13.52
2022-08-29T05:56:36.280Z,14.35
2022-08-29T05:59:02.752Z,12.10
2022-08-29T06:01:32.902Z,14.57
2022-08-29T06:04:00.653Z,16.42
2022-08-29T06:06:28.909Z,12.48
2022-08-29T06:08:58.076Z,13.77
2022-08-29T06:11:27.994Z,16.25
2022-08-29T06:13:55.264Z,15.98
2022-08-29T06:16:24.224Z,14.27
2022-08-29T06:18:52.529Z,15.23
2022-08-29T06:21:19.357Z,11.50
2022-08-29T06:23:46.555Z,17.40
2022-08-29T06:26:14.222Z,13.82
2022-08-29T06:28:43.109Z,13.75
2022-08-29T06:31:12.518Z,13.55
2022-08-29T06:33:39.103Z,14.68
2022-08-29T06:36:06.986Z,13.30
2022-08-29T06:38:34.513Z,14.25
2022-08-29T06:41:09.750Z,18.13
2022-08-29T06:43:36.588Z,12.18
2022-08-29T06:46:03.959Z,14.82
2022-08-29T06:48:30.960Z,16.45
2022-08-29T06:51:03.318Z,11.65
2022-08-29T06:53:37.382Z,16.17
2022-08-29T06:56:05.781Z,14.38
2022-08-29T06:58:33.789Z,15.63
2022-08-29T07:01:11.814Z,14.13
2022-08-29T07:03:40.277Z,18.73
2022-08-29T07:06:09.904Z,15.60
2022-08-29T07:08:46.707Z,14.15
2022-08-29T07:11:30.194Z,18.17
2022-08-29T07:13:59.574Z,12.45
2022-08-29T07:16:28.848Z,12.40
2022-08-29T07:18:55.882Z,14.15
2022-08-29T07:21:27.129Z,14.88
2022-08-29T07:23:55.269Z,12.73
2022-08-29T07:26:32.909Z,16.48
2022-08-29T07:29:03.187Z,15.15
2022-08-29T07:31:31.200Z,13.18
2022-08-29T07:34:02.269Z,11.68
2022-08-29T07:36:34.014Z,20.48
2022-08-29T07:39:01.895Z,17.25
2022-08-29T07:41:29.673Z,16.38
2022-08-29T07:43:57.290Z,12.27
2022-08-29T07:46:23.737Z,11.63
2022-08-29T07:48:50.230Z,11.00
2022-08-29T07:51:19.142Z,15.57
2022-08-29T07:53:46.102Z,10.45
2022-08-29T07:56:16.670Z,10.43
2022-08-29T07:58:43.418Z,10.48
2022-08-29T08:01:14.859Z,16.83
2022-08-29T08:03:49.069Z,14.82
2022-08-29T08:06:16.796Z,10.85
2022-08-29T08:08:43.414Z,12.40
2022-08-29T08:11:09.860Z,10.18
2022-08-29T08:13:38.759Z,13.13
2022-08-29T08:16:07.921Z,10.15
2022-08-29T08:18:36.531Z,11.93
2022-08-29T08:21:04.253Z,13.50
2022-08-29T08:23:31.244Z,11.52
2022-08-29T08:25:57.629Z,11.70
2022-08-29T08:28:24.622Z,10.35
2022-08-29T08:30:51.159Z,11.23
2022-08-29T08:33:17.969Z,15.80
2022-08-29T08:35:46.953Z,12.20
2022-08-29T08:38:14.133Z,12.77
2022-08-29T08:40:51.595Z,14.13
2022-08-29T08:43:26.691Z,16.70
2022-08-29T08:45:54.794Z,18.08
2022-08-29T08:48:24.538Z,16.13
2022-08-29T08:51:06.131Z,14.00
2022-08-29T08:53:38.848Z,10.32
2022-08-29T08:56:16.551Z,12.68
2022-08-29T08:58:53.952Z,11.95
2022-08-29T09:01:40.801Z,12.05
2022-08-29T09:04:32.763Z,11.35
2022-08-29T09:07:38.299Z,7.90
2022-08-29T09:10:28.082Z,8.60
2022-08-29T09:13:25.259Z,6.53
2022-08-29T09:15:54.862Z,9.60
2022-08-29T09:18:40.392Z,5.95
2022-08-29T09:21:39.014Z,7.85
2022-08-29T09:24:00.148Z,7.78
2022-08-29T09:26:26.934Z,8.05
2022-08-29T09:28:54.328Z,6.43
2022-08-29T09:31:28.361Z,6.38
2022-08-29T09:34:12.330Z,8.98
2022-08-29T09:36:48.832Z,8.10
2022-08-29T09:39:17.485Z,6.53
2022-08-29T09:41:47.751Z,6.43
2022-08-29T09:47:04.540Z,7.45
2022-08-29T09:49:31.047Z,6.47
2022-08-29T09:52:11.684Z,5.78
2022-08-29T09:54:38.654Z,6.47
2022-08-29T09:57:10.838Z,8.05
2022-08-29T09:59:45.318Z,6.38
2022-08-29T10:02:30.274Z,5.95
2022-08-29T10:05:12.039Z,7.88
2022-08-29T10:07:51.898Z,7.47
2022-08-29T10:10:23.859Z,7.25
2022-08-29T10:13:05.920Z,8.80
2022-08-29T10:15:51.407Z,11.70
2022-08-29T10:18:40.908Z,8.98
2022-08-29T10:21:14.705Z,7.15
2022-08-29T10:23:53.500Z,9.13
2022-08-29T10:26:26.799Z,7.68
2022-08-29T10:29:13.272Z,12.50
2022-08-29T10:31:54.165Z,7.40
2022-08-29T10:34:35.231Z,7.10
2022-08-29T10:37:12.189Z,5.57
2022-08-29T10:39:58.206Z,5.38
2022-08-29T10:42:26.907Z,6.68
2022-08-29T10:45:10.491Z,7.78
2022-08-29T10:47:42.491Z,5.90
2022-08-29T10:50:46.089Z,5.63
2022-08-29T10:53:27.328Z,4.82
2022-08-29T10:55:57.595Z,4.78
2022-08-29T11:01:19.012Z,4.25
2022-08-29T11:04:18.390Z,5.57
2022-08-29T11:07:11.040Z,5.73
2022-08-29T11:10:00.759Z,5.40
2022-08-29T11:12:45.343Z,6.25
2022-08-29T11:15:31.672Z,4.88
2022-08-29T11:18:12.752Z,4.72
2022-08-29T11:20:55.267Z,5.13
2022-08-29T11:23:42.445Z,4.70
2022-08-29T11:26:20.061Z,4.65
2022-08-29T11:29:07.176Z,6.93
2022-08-29T11:31:56.025Z,4.53
2022-08-29T11:34:41.414Z,4.90
2022-08-29T11:37:42.662Z,3.78
2022-08-29T11:40:18.172Z,4.00
2022-08-29T11:42:51.042Z,4.15
2022-08-29T11:45:29.677Z,4.05
2022-08-29T11:48:21.497Z,4.68
2022-08-29T11:50:48.048Z,6.22
2022-08-29T11:53:30.097Z,6.10
2022-08-29T11:56:22.409Z,5.07
2022-08-29T11:58:52.303Z,5.85
2022-08-29T12:01:24.773Z,3.65
2022-08-29T12:03:58.395Z,4.15
2022-08-29T12:06:27.373Z,6.20
2022-08-29T12:09:04.491Z,5.25
2022-08-29T12:12:02.906Z,3.80
2022-08-29T12:14:41.938Z,6.20
2022-08-29T12:17:51.347Z,8.82
2022-08-29T12:20:32.283Z,4.05
2022-08-29T12:23:13.798Z,4.70
2022-08-29T12:25:40.245Z,3.15
2022-08-29T12:28:15.815Z,4.47
2022-08-29T12:30:50.100Z,4.03
2022-08-29T12:33:42.274Z,5.15
2022-08-29T12:36:52.365Z,5.47
2022-08-29T12:39:24.865Z,4.10
2022-08-29T12:41:58.859Z,7.38
2022-08-29T12:44:32.429Z,5.40
2022-08-29T12:47:07.396Z,4.40
2022-08-29T12:49:49.521Z,8.45
2022-08-29T12:52:27.036Z,4.25
2022-08-29T12:54:56.623Z,5.03
2022-08-29T12:57:34.523Z,4.50
2022-08-29T13:00:08.808Z,7.07
2022-08-29T13:02:37.943Z,4.82
2022-08-29T13:05:20.038Z,4.72
2022-08-29T13:07:55.497Z,4.05
2022-08-29T13:10:22.108Z,5.15
2022-08-29T13:12:49.974Z,4.43
2022-08-29T13:15:21.668Z,5.95
2022-08-29T13:17:50.771Z,9.02
2022-08-29T13:20:39.915Z,5.45
2022-08-29T13:23:12.241Z,4.82
2022-08-29T13:26:11.350Z,3.70
2022-08-29T13:28:46.193Z,6.07
2022-08-29T13:31:15.717Z,4.63
2022-08-29T13:33:48.191Z,6.20
2022-08-29T13:36:41.369Z,3.80
2022-08-29T13:39:19.944Z,4.28
2022-08-29T13:41:49.723Z,5.95
2022-08-29T13:44:26.744Z,4.15
2022-08-29T13:46:57.968Z,4.90
2022-08-29T13:49:29.679Z,5.60
2022-08-29T13:51:59.215Z,6.50
2022-08-29T13:54:31.777Z,4.40
2022-08-29T13:57:02.243Z,6.32
2022-08-29T13:59:34.269Z,5.82
2022-08-29T14:02:10.113Z,5.53
2022-08-29T14:04:41.920Z,5.25
2022-08-29T14:07:30.086Z,5.63
2022-08-29T14:09:57.037Z,4.85
2022-08-29T14:12:33.861Z,4.10
2022-08-29T14:15:08.316Z,4.13
2022-08-29T14:17:35.797Z,4.32
2022-08-29T14:20:02.381Z,4.95
2022-08-29T14:22:29.849Z,9.57
2022-08-29T14:24:56.697Z,5.05
2022-08-29T14:27:23.601Z,5.43
2022-08-29T14:29:50.263Z,5.03
2022-08-29T14:32:16.810Z,4.35
2022-08-29T14:34:44.198Z,3.75
2022-08-29T14:37:20.350Z,3.90
2022-08-29T14:39:49.657Z,4.10
2022-08-29T14:42:16.927Z,3.95
2022-08-29T14:44:44.131Z,5.68
2022-08-29T14:47:10.616Z,4.65
2022-08-29T14:49:37.075Z,4.07
2022-08-29T14:52:04.302Z,4.35
2022-08-29T14:54:32.496Z,6.07
2022-08-29T14:56:59.203Z,4.35
2022-08-29T14:59:25.678Z,4.43
2022-08-29T15:01:54.861Z,5.18
2022-08-29T15:04:36.074Z,3.80
2022-08-29T15:07:09.850Z,4.45
2022-08-29T15:09:37.514Z,4.65
2022-08-29T15:12:05.511Z,8.00
2022-08-29T15:14:32.317Z,4.75
2022-08-29T15:16:59.001Z,5.13
2022-08-29T15:22:13.396Z,6.38
2022-08-29T15:24:40.808Z,4.30
2022-08-29T15:27:08.353Z,4.63
2022-08-29T15:29:37.220Z,5.60
2022-08-29T15:32:04.675Z,7.40
2022-08-29T15:34:31.470Z,3.83
2022-08-29T15:36:58.480Z,4.28
2022-08-29T15:39:26.067Z,5.78
2022-08-29T15:41:52.906Z,6.32
2022-08-29T15:44:19.602Z,5.28
2022-08-29T15:46:50.457Z,3.70
2022-08-29T15:49:19.432Z,5.13
2022-08-29T15:51:46.819Z,5.40
2022-08-29T15:54:14.454Z,3.67
2022-08-29T15:56:42.562Z,4.05
2022-08-29T15:59:11.337Z,4.40
2022-08-29T16:01:41.514Z,5.18
2022-08-29T16:04:10.719Z,4.47
2022-08-29T16:06:38.430Z,7.93
2022-08-29T16:09:14.887Z,4.93
2022-08-29T16:11:43.031Z,4.22
2022-08-29T16:14:57.984Z,3.72
2022-08-29T16:16:59.985Z,4.97
2022-08-29T16:19:27.217Z,6.72
2022-08-29T16:21:54.047Z,4.05
2022-08-29T16:24:20.686Z,4.65
2022-08-29T16:26:47.571Z,4.88
2022-08-29T16:29:14.254Z,5.30
2022-08-29T16:31:40.992Z,4.32
2022-08-29T16:34:07.427Z,5.38
2022-08-29T16:36:34.110Z,5.45
2022-08-29T16:39:00.567Z,4.93
2022-08-29T16:41:27.240Z,3.72
2022-08-29T16:43:55.433Z,4.03
2022-08-29T16:46:26.530Z,6.13
2022-08-29T16:48:58.247Z,5.15
2022-08-29T16:51:27.057Z,4.22
2022-08-29T16:53:53.848Z,4.90
2022-08-29T16:56:21.720Z,4.60
2022-08-29T16:58:48.778Z,4.57
2022-08-29T17:01:22.679Z,4.60
2022-08-29T17:03:49.169Z,5.05
2022-08-29T17:06:16.908Z,4.50
2022-08-29T17:08:43.498Z,5.82
2022-08-29T17:11:10.313Z,5.22
2022-08-29T17:13:39.384Z,5.38
2022-08-29T17:16:08.655Z,6.18
2022-08-29T17:18:37.277Z,5.67
2022-08-29T17:21:06.457Z,5.63
2022-08-29T17:23:34.772Z,4.32
2022-08-29T17:26:03.361Z,5.70
2022-08-29T17:28:30.181Z,3.90
2022-08-29T17:30:57.241Z,7.45
2022-08-29T17:33:24.446Z,5.22
2022-08-29T17:35:52.859Z,5.20
2022-08-29T17:38:19.693Z,5.88
2022-08-29T17:40:46.754Z,5.57
2022-08-29T17:43:18.690Z,4.22
2022-08-29T17:45:46.517Z,5.70
2022-08-29T17:48:13.319Z,5.00
2022-08-29T17:50:40.241Z,6.13
2022-08-29T17:53:08.441Z,5.78
2022-08-29T17:55:35.179Z,4.38
2022-08-29T17:58:01.706Z,4.20
2022-08-29T18:00:28.746Z,5.30
2022-08-29T18:02:55.251Z,6.70
2022-08-29T18:05:21.677Z,4.55
2022-08-29T18:07:48.563Z,4.93
2022-08-29T18:10:16.730Z,5.28
2022-08-29T18:12:43.101Z,5.00
2022-08-29T18:15:13.809Z,5.90
2022-08-29T18:17:41.129Z,5.38
2022-08-29T18:20:10.432Z,5.40
2022-08-29T18:22:37.749Z,5.20
2022-08-29T18:25:05.749Z,6.05
2022-08-29T18:27:32.671Z,6.78
2022-08-29T18:29:59.873Z,6.65
2022-08-29T18:32:28.474Z,9.40
2022-08-29T18:35:04.515Z,6.05
2022-08-29T18:37:31.094Z,6.10
2022-08-29T18:39:57.964Z,7.35
2022-08-29T18:42:39.442Z,5.90
2022-08-29T18:45:07.476Z,5.38
2022-08-29T18:47:33.985Z,6.57
2022-08-29T18:50:00.399Z,6.45
2022-08-29T18:52:27.091Z,5.65
2022-08-29T18:54:54.543Z,6.25
2022-08-29T18:57:20.998Z,5.40
2022-08-29T18:59:47.426Z,8.90
2022-08-29T19:02:14.415Z,5.03
2022-08-29T19:04:41.434Z,7.05
2022-08-29T19:07:09.619Z,7.63
2022-08-29T19:09:36.111Z,6.40
2022-08-29T19:12:02.968Z,6.50
2022-08-29T19:14:29.932Z,5.88
2022-08-29T19:17:00.292Z,5.30
2022-08-29T19:19:27.041Z,6.22
2022-08-29T19:21:53.759Z,11.02
2022-08-29T19:24:20.308Z,8.82
2022-08-29T19:26:47.031Z,11.20
2022-08-29T19:29:13.410Z,9.60
2022-08-29T19:31:41.491Z,9.18
2022-08-29T19:34:08.099Z,14.07
2022-08-29T19:36:34.544Z,7.88
2022-08-29T19:39:01.026Z,8.68
2022-08-29T19:41:28.207Z,7.15
2022-08-29T19:43:55.115Z,7.10
2022-08-29T19:46:23.973Z,7.32
2022-08-29T19:48:52.413Z,6.60
2022-08-29T19:51:24.541Z,8.80
2022-08-29T19:53:52.437Z,10.20
2022-08-29T19:56:19.971Z,9.32
2022-08-29T19:58:49.495Z,11.63
2022-08-29T20:01:16.760Z,9.10
2022-08-29T20:03:45.525Z,6.70
2022-08-29T20:06:12.266Z,9.85
2022-08-29T20:08:41.930Z,8.38
2022-08-29T20:11:16.149Z,10.25
2022-08-29T20:13:50.067Z,8.27
2022-08-29T20:16:19.468Z,9.63
2022-08-29T20:18:47.897Z,8.55
2022-08-29T20:21:16.809Z,9.55
2022-08-29T20:23:49.483Z,8.18
2022-08-29T20:26:18.791Z,10.25
2022-08-29T20:28:47.275Z,7.85
2022-08-29T20:31:13.769Z,14.23
2022-08-29T20:33:41.441Z,10.00
2022-08-29T20:36:08.566Z,11.05
2022-08-29T20:38:35.050Z,14.50
2022-08-29T20:41:01.533Z,10.88
2022-08-29T20:43:28.388Z,9.60
2022-08-29T20:45:58.284Z,8.18
2022-08-29T20:48:31.142Z,12.98
2022-08-29T20:51:00.393Z,9.70
2022-08-29T20:53:32.026Z,10.75
2022-08-29T20:56:00.526Z,8.13
2022-08-29T20:58:28.947Z,12.18
2022-08-29T21:00:59.948Z,12.98
2022-08-29T21:03:26.529Z,9.88
2022-08-29T21:05:53.070Z,9.13
2022-08-29T21:08:22.338Z,9.23
2022-08-29T21:10:51.297Z,9.15
2022-08-29T21:13:19.029Z,12.55
2022-08-29T21:15:46.608Z,12.23
2022-08-29T21:18:16.289Z,12.95
2022-08-29T21:20:54.343Z,9.38
2022-08-29T21:23:23.599Z,11.18
2022-08-29T21:25:55.384Z,14.95
2022-08-29T21:28:24.095Z,14.68
2022-08-29T21:30:51.965Z,8.73
2022-08-29T21:33:19.360Z,8.13
2022-08-29T21:35:46.029Z,9.23
2022-08-29T21:38:16.550Z,12.02
2022-08-29T21:40:51.106Z,9.60
2022-08-29T21:43:19.171Z,9.82
2022-08-29T21:45:45.615Z,10.70
2022-08-29T21:48:12.097Z,9.02
2022-08-29T21:50:38.816Z,7.07
2022-08-29T21:53:05.692Z,9.95
2022-08-29T21:55:32.453Z,9.10
2022-08-29T21:58:00.360Z,9.00
2022-08-29T22:00:32.647Z,8.50
2022-08-29T22:03:01.801Z,9.32
2022-08-29T22:05:30.890Z,12.25
2022-08-29T22:07:58.083Z,13.18
2022-08-29T22:10:30.152Z,7.85
2022-08-29T22:12:58.795Z,11.20
2022-08-29T22:15:26.077Z,13.90
2022-08-29T22:17:52.567Z,9.63
2022-08-29T22:20:19.836Z,12.40
2022-08-29T22:22:46.688Z,9.30
2022-08-29T22:25:13.436Z,11.02
2022-08-29T22:27:40.423Z,9.68
2022-08-29T22:30:17.378Z,9.80
2022-08-29T22:32:44.010Z,8.90
2022-08-29T22:35:19.390Z,10.85
2022-08-29T22:37:47.543Z,9.50
2022-08-29T22:40:17.128Z,11.90
2022-08-29T22:42:44.561Z,8.83
2022-08-29T22:45:13.187Z,8.98
2022-08-29T22:47:42.124Z,10.90
2022-08-29T22:50:21.727Z,11.98
2022-08-29T22:52:55.462Z,13.93
2022-08-29T22:57:48.389Z,11.55
2022-08-29T23:00:17.762Z,11.80
2022-08-29T23:02:44.271Z,10.15
2022-08-29T23:05:11.024Z,11.45
2022-08-29T23:07:38.524Z,10.80
2022-08-29T23:10:07.255Z,9.82
2022-08-29T23:12:34.678Z,10.73
2022-08-29T23:15:01.097Z,10.40
2022-08-29T23:17:27.450Z,11.98
2022-08-29T23:19:54.408Z,9.07
2022-08-29T23:22:20.784Z,8.32
2022-08-29T23:24:53.960Z,15.48
2022-08-29T23:27:29.428Z,11.70
2022-08-29T23:32:22.727Z,11.07
2022-08-29T23:34:49.214Z,11.45
2022-08-29T23:37:17.982Z,12.75
2022-08-29T23:39:44.538Z,9.57
2022-08-29T23:42:10.894Z,14.35
2022-08-29T23:44:37.429Z,11.43
2022-08-29T23:47:04.567Z,8.90
2022-08-29T23:49:31.421Z,13.80
2022-08-29T23:51:57.901Z,10.00
2022-08-29T23:54:26.000Z,10.85
2022-08-29T23:56:52.706Z,10.18
2022-08-29T23:59:19.089Z,11.45
